Aeroporto :
LOGIN :

Iscrizione | Disclaimer

   EN    FR    IT 

 










Sommario :    VFR   VFR Marginale   IFR   IFR Intensivo   IFR Molto Intensivo
Visibilità : 
Base nubi : 
>= 8 km
>= 3000ft
5 / 8 km
1000 / 3000 ft
1500m / 5 km
500 / 1000 ft
800 / 1500m
200 / 500 ft
< 800m
< 200 ft
Simboli :   Temporali  Nebbia  Neve Forte  Precipitazioni Forti  Vento > 20 kt
SIGMETs :   Varie  Temporali  Ghiacco  Turbolenza  Onda orograficha  Ceneri Vulcaniche






- Altitudine del aeroporto : 47 ft
- Codice IATA : BMA


ESSB - Stockholm-Bromma

ULTIMO METAR :
  • 040950Z 27017KT CAVOK 05/M09 Q1014

METARs OBSOLETI :
  • 040920Z 26014KT CAVOK 05/M08 Q1014
  • 040850Z 25014KT CAVOK 04/M07 Q1013
  • 040820Z 26012KT CAVOK 03/M07 Q1013
  • 040750Z 24009KT CAVOK 03/M06 Q1012
  • 040720Z 25009KT CAVOK 02/M05 Q1012

TAF TAF ESSB
Valido dal 04 a 09 ore il 04 a 11 ore UTC


040830Z 0409/0411 26012G22KT CAVOK



MetMap, La meteo Aeronautica in un colpo d'occhio ! - Copyright ORBIFLY Dicembre 2007 - Disclaimer

ORBIFLY MET'MAP TEAM :

Programmazione e sviluppo : Alexandra Zaïnal
Concezione : Baudouin d'Aumeries
Aiuto per la programmazione : Marc-Olivier Méhu
Supporto tecnico e logistico : Manuel Goepfert
Aiuto per la traduzione : Arnaldo La Scala

Contatto : metmap@orbifly.com




FONTI E CREDITI :

   NOAA